sensor_id;sensor_type;location;lat;lon;timestamp;P1;durP1;ratioP1;P2;durP2;ratioP2
52294;SDS011;38243;53.212;6.574;2023-05-21T00:01:49;1.83;;;1.30;;
52294;SDS011;38243;53.212;6.574;2023-05-21T00:04:15;1.50;;;0.95;;
52294;SDS011;38243;53.212;6.574;2023-05-21T00:06:41;1.30;;;1.20;;
52294;SDS011;38243;53.212;6.574;2023-05-21T00:09:07;3.10;;;1.10;;
52294;SDS011;38243;53.212;6.574;2023-05-21T00:11:33;1.60;;;1.08;;
52294;SDS011;38243;53.212;6.574;2023-05-21T00:13:59;1.73;;;1.13;;
52294;SDS011;38243;53.212;6.574;2023-05-21T00:16:24;1.60;;;1.00;;
52294;SDS011;38243;53.212;6.574;2023-05-21T00:18:50;2.87;;;1.20;;
52294;SDS011;38243;53.212;6.574;2023-05-21T00:21:18;1.58;;;1.20;;
52294;SDS011;38243;53.212;6.574;2023-05-21T00:23:47;1.67;;;1.00;;
52294;SDS011;38243;53.212;6.574;2023-05-21T00:26:14;1.70;;;0.80;;
52294;SDS011;38243;53.212;6.574;2023-05-21T00:28:40;1.42;;;1.00;;
52294;SDS011;38243;53.212;6.574;2023-05-21T00:31:05;1.40;;;0.80;;
52294;SDS011;38243;53.212;6.574;2023-05-21T00:33:31;1.33;;;1.10;;
52294;SDS011;38243;53.212;6.574;2023-05-21T00:35:58;3.20;;;0.90;;
52294;SDS011;38243;53.212;6.574;2023-05-21T00:38:23;1.10;;;0.80;;
52294;SDS011;38243;53.212;6.574;2023-05-21T00:40:52;1.40;;;1.20;;
52294;SDS011;38243;53.212;6.574;2023-05-21T00:43:17;1.10;;;0.90;;
52294;SDS011;38243;53.212;6.574;2023-05-21T00:45:43;1.27;;;1.00;;
52294;SDS011;38243;53.212;6.574;2023-05-21T00:48:10;1.80;;;1.20;;
52294;SDS011;38243;53.212;6.574;2023-05-21T00:50:37;2.00;;;1.15;;
52294;SDS011;38243;53.212;6.574;2023-05-21T00:53:05;1.48;;;1.10;;
52294;SDS011;38243;53.212;6.574;2023-05-21T00:55:34;1.77;;;1.15;;
52294;SDS011;38243;53.212;6.574;2023-05-21T00:58:03;1.27;;;0.90;;
52294;SDS011;38243;53.212;6.574;2023-05-21T01:00:33;2.25;;;1.02;;
52294;SDS011;38243;53.212;6.574;2023-05-21T01:03:00;1.10;;;1.00;;
52294;SDS011;38243;53.212;6.574;2023-05-21T01:05:29;1.10;;;0.90;;
52294;SDS011;38243;53.212;6.574;2023-05-21T01:07:55;1.10;;;0.90;;
52294;SDS011;38243;53.212;6.574;2023-05-21T01:10:22;2.50;;;1.20;;
52294;SDS011;38243;53.212;6.574;2023-05-21T01:12:49;1.52;;;0.90;;
52294;SDS011;38243;53.212;6.574;2023-05-21T01:15:16;1.25;;;0.98;;
52294;SDS011;38243;53.212;6.574;2023-05-21T01:17:42;1.83;;;1.33;;
52294;SDS011;38243;53.212;6.574;2023-05-21T01:20:13;2.13;;;1.13;;
52294;SDS011;38243;53.212;6.574;2023-05-21T01:22:50;2.42;;;1.20;;
52294;SDS011;38243;53.212;6.574;2023-05-21T01:25:17;1.35;;;1.25;;
52294;SDS011;38243;53.212;6.574;2023-05-21T01:27:43;1.58;;;1.17;;
52294;SDS011;38243;53.212;6.574;2023-05-21T01:30:08;1.97;;;1.20;;
52294;SDS011;38243;53.212;6.574;2023-05-21T01:32:41;1.00;;;0.90;;
52294;SDS011;38243;53.212;6.574;2023-05-21T01:35:21;1.65;;;1.02;;
52294;SDS011;38243;53.212;6.574;2023-05-21T01:43:28;1.20;;;0.98;;
52294;SDS011;38243;53.212;6.574;2023-05-21T01:45:58;2.23;;;1.00;;
52294;SDS011;38243;53.212;6.574;2023-05-21T01:48:28;2.47;;;1.13;;
52294;SDS011;38243;53.212;6.574;2023-05-21T01:51:00;1.55;;;1.30;;
52294;SDS011;38243;53.212;6.574;2023-05-21T01:53:27;2.28;;;1.33;;
52294;SDS011;38243;53.212;6.574;2023-05-21T01:55:53;1.77;;;1.33;;
52294;SDS011;38243;53.212;6.574;2023-05-21T01:58:19;2.77;;;1.27;;
52294;SDS011;38243;53.212;6.574;2023-05-21T02:00:46;1.70;;;1.30;;
52294;SDS011;38243;53.212;6.574;2023-05-21T02:03:15;5.40;;;1.30;;
52294;SDS011;38243;53.212;6.574;2023-05-21T02:05:42;2.05;;;1.50;;
52294;SDS011;38243;53.212;6.574;2023-05-21T02:08:08;2.92;;;1.25;;
52294;SDS011;38243;53.212;6.574;2023-05-21T02:10:34;2.17;;;1.20;;
52294;SDS011;38243;53.212;6.574;2023-05-21T02:13:00;2.80;;;1.27;;
52294;SDS011;38243;53.212;6.574;2023-05-21T02:15:26;1.73;;;1.20;;
52294;SDS011;38243;53.212;6.574;2023-05-21T02:17:52;2.10;;;1.38;;
52294;SDS011;38243;53.212;6.574;2023-05-21T02:20:18;2.72;;;1.23;;
52294;SDS011;38243;53.212;6.574;2023-05-21T02:22:44;1.50;;;1.17;;
52294;SDS011;38243;53.212;6.574;2023-05-21T02:25:12;1.63;;;0.90;;
52294;SDS011;38243;53.212;6.574;2023-05-21T02:27:39;1.60;;;1.10;;
52294;SDS011;38243;53.212;6.574;2023-05-21T02:30:07;2.67;;;1.23;;
52294;SDS011;38243;53.212;6.574;2023-05-21T02:32:36;1.48;;;1.25;;
52294;SDS011;38243;53.212;6.574;2023-05-21T02:35:03;1.40;;;1.00;;
52294;SDS011;38243;53.212;6.574;2023-05-21T02:37:30;1.77;;;1.33;;
52294;SDS011;38243;53.212;6.574;2023-05-21T02:39:58;1.50;;;1.10;;
52294;SDS011;38243;53.212;6.574;2023-05-21T02:42:24;2.38;;;1.35;;
52294;SDS011;38243;53.212;6.574;2023-05-21T02:44:50;2.47;;;1.58;;
52294;SDS011;38243;53.212;6.574;2023-05-21T02:47:17;1.67;;;1.10;;
52294;SDS011;38243;53.212;6.574;2023-05-21T02:49:43;3.30;;;1.40;;
52294;SDS011;38243;53.212;6.574;2023-05-21T02:52:09;1.43;;;1.20;;
52294;SDS011;38243;53.212;6.574;2023-05-21T02:54:35;2.80;;;1.30;;
52294;SDS011;38243;53.212;6.574;2023-05-21T02:57:01;1.23;;;1.10;;
52294;SDS011;38243;53.212;6.574;2023-05-21T02:59:27;2.55;;;1.33;;
52294;SDS011;38243;53.212;6.574;2023-05-21T03:01:52;1.80;;;1.37;;
52294;SDS011;38243;53.212;6.574;2023-05-21T03:04:18;2.13;;;1.30;;
52294;SDS011;38243;53.212;6.574;2023-05-21T03:06:47;1.77;;;1.20;;
52294;SDS011;38243;53.212;6.574;2023-05-21T03:09:16;1.38;;;1.15;;
52294;SDS011;38243;53.212;6.574;2023-05-21T03:11:41;1.83;;;1.27;;
52294;SDS011;38243;53.212;6.574;2023-05-21T03:14:07;2.30;;;1.40;;
52294;SDS011;38243;53.212;6.574;2023-05-21T03:16:34;2.70;;;1.20;;
52294;SDS011;38243;53.212;6.574;2023-05-21T03:19:00;2.00;;;1.40;;
52294;SDS011;38243;53.212;6.574;2023-05-21T03:21:26;2.25;;;1.38;;
52294;SDS011;38243;53.212;6.574;2023-05-21T03:23:54;1.52;;;1.23;;
52294;SDS011;38243;53.212;6.574;2023-05-21T03:26:23;3.05;;;1.52;;
52294;SDS011;38243;53.212;6.574;2023-05-21T03:28:51;2.87;;;1.47;;
52294;SDS011;38243;53.212;6.574;2023-05-21T03:31:17;1.63;;;1.37;;
52294;SDS011;38243;53.212;6.574;2023-05-21T03:33:43;1.67;;;1.33;;
52294;SDS011;38243;53.212;6.574;2023-05-21T03:36:09;1.98;;;1.15;;
52294;SDS011;38243;53.212;6.574;2023-05-21T03:38:35;1.95;;;1.50;;
52294;SDS011;38243;53.212;6.574;2023-05-21T03:41:01;2.27;;;1.40;;
52294;SDS011;38243;53.212;6.574;2023-05-21T03:43:26;1.63;;;1.33;;
52294;SDS011;38243;53.212;6.574;2023-05-21T03:45:53;3.20;;;1.60;;
52294;SDS011;38243;53.212;6.574;2023-05-21T03:48:18;1.45;;;1.10;;
52294;SDS011;38243;53.212;6.574;2023-05-21T03:50:44;3.28;;;1.40;;
52294;SDS011;38243;53.212;6.574;2023-05-21T03:53:10;2.57;;;1.30;;
52294;SDS011;38243;53.212;6.574;2023-05-21T03:55:36;1.83;;;1.20;;
52294;SDS011;38243;53.212;6.574;2023-05-21T03:58:02;2.60;;;1.50;;
52294;SDS011;38243;53.212;6.574;2023-05-21T04:00:28;2.10;;;1.13;;
52294;SDS011;38243;53.212;6.574;2023-05-21T04:02:54;2.20;;;1.30;;
52294;SDS011;38243;53.212;6.574;2023-05-21T04:05:19;3.13;;;1.15;;
52294;SDS011;38243;53.212;6.574;2023-05-21T04:07:45;2.63;;;1.23;;
52294;SDS011;38243;53.212;6.574;2023-05-21T04:10:11;3.30;;;1.35;;
52294;SDS011;38243;53.212;6.574;2023-05-21T04:12:37;5.25;;;1.33;;
52294;SDS011;38243;53.212;6.574;2023-05-21T04:15:02;2.08;;;1.17;;
52294;SDS011;38243;53.212;6.574;2023-05-21T04:17:28;1.77;;;1.05;;
52294;SDS011;38243;53.212;6.574;2023-05-21T04:19:54;1.30;;;1.10;;
52294;SDS011;38243;53.212;6.574;2023-05-21T04:22:20;1.83;;;1.10;;
52294;SDS011;38243;53.212;6.574;2023-05-21T04:24:47;1.80;;;1.20;;
52294;SDS011;38243;53.212;6.574;2023-05-21T04:27:13;3.05;;;1.58;;
52294;SDS011;38243;53.212;6.574;2023-05-21T04:29:40;1.90;;;1.40;;
52294;SDS011;38243;53.212;6.574;2023-05-21T04:32:07;2.20;;;1.25;;
52294;SDS011;38243;53.212;6.574;2023-05-21T04:34:33;2.53;;;1.40;;
52294;SDS011;38243;53.212;6.574;2023-05-21T04:36:59;3.80;;;1.43;;
52294;SDS011;38243;53.212;6.574;2023-05-21T04:39:26;2.40;;;1.30;;
52294;SDS011;38243;53.212;6.574;2023-05-21T04:41:53;2.57;;;1.30;;
52294;SDS011;38243;53.212;6.574;2023-05-21T04:44:20;2.03;;;1.10;;
52294;SDS011;38243;53.212;6.574;2023-05-21T04:46:46;1.73;;;1.20;;
52294;SDS011;38243;53.212;6.574;2023-05-21T04:49:13;2.35;;;1.15;;
52294;SDS011;38243;53.212;6.574;2023-05-21T04:51:39;2.78;;;1.42;;
52294;SDS011;38243;53.212;6.574;2023-05-21T04:54:05;3.00;;;1.20;;
52294;SDS011;38243;53.212;6.574;2023-05-21T04:56:31;2.90;;;1.30;;
52294;SDS011;38243;53.212;6.574;2023-05-21T04:58:57;2.55;;;1.10;;
52294;SDS011;38243;53.212;6.574;2023-05-21T05:01:24;1.55;;;1.02;;
52294;SDS011;38243;53.212;6.574;2023-05-21T05:03:51;2.80;;;1.25;;
52294;SDS011;38243;53.212;6.574;2023-05-21T05:06:17;4.88;;;1.60;;
52294;SDS011;38243;53.212;6.574;2023-05-21T05:08:43;2.42;;;1.48;;
52294;SDS011;38243;53.212;6.574;2023-05-21T05:11:10;1.67;;;1.30;;
52294;SDS011;38243;53.212;6.574;2023-05-21T05:13:37;2.83;;;1.10;;
52294;SDS011;38243;53.212;6.574;2023-05-21T05:16:04;2.33;;;1.00;;
52294;SDS011;38243;53.212;6.574;2023-05-21T05:18:31;1.85;;;1.08;;
52294;SDS011;38243;53.212;6.574;2023-05-21T05:20:58;1.70;;;0.90;;
52294;SDS011;38243;53.212;6.574;2023-05-21T05:23:24;2.15;;;1.20;;
52294;SDS011;38243;53.212;6.574;2023-05-21T05:25:50;1.67;;;1.20;;
52294;SDS011;38243;53.212;6.574;2023-05-21T05:28:16;1.60;;;1.00;;
52294;SDS011;38243;53.212;6.574;2023-05-21T05:30:41;1.47;;;0.97;;
52294;SDS011;38243;53.212;6.574;2023-05-21T05:33:07;1.95;;;1.15;;
52294;SDS011;38243;53.212;6.574;2023-05-21T05:35:34;2.30;;;1.38;;
52294;SDS011;38243;53.212;6.574;2023-05-21T05:38:00;3.00;;;1.40;;
52294;SDS011;38243;53.212;6.574;2023-05-21T05:40:26;1.98;;;1.20;;
52294;SDS011;38243;53.212;6.574;2023-05-21T05:42:52;2.50;;;1.20;;
52294;SDS011;38243;53.212;6.574;2023-05-21T05:45:18;1.55;;;1.20;;
52294;SDS011;38243;53.212;6.574;2023-05-21T05:47:44;2.88;;;1.27;;
52294;SDS011;38243;53.212;6.574;2023-05-21T05:50:10;1.92;;;1.13;;
52294;SDS011;38243;53.212;6.574;2023-05-21T05:52:36;2.33;;;1.40;;
52294;SDS011;38243;53.212;6.574;2023-05-21T05:55:01;2.30;;;1.30;;
52294;SDS011;38243;53.212;6.574;2023-05-21T05:57:27;2.53;;;1.30;;
52294;SDS011;38243;53.212;6.574;2023-05-21T05:59:53;1.90;;;1.20;;
52294;SDS011;38243;53.212;6.574;2023-05-21T06:02:19;2.13;;;1.10;;
52294;SDS011;38243;53.212;6.574;2023-05-21T06:04:44;1.70;;;1.03;;
52294;SDS011;38243;53.212;6.574;2023-05-21T06:07:10;3.40;;;1.40;;
52294;SDS011;38243;53.212;6.574;2023-05-21T06:09:36;2.50;;;1.10;;
52294;SDS011;38243;53.212;6.574;2023-05-21T06:12:03;1.85;;;1.05;;
52294;SDS011;38243;53.212;6.574;2023-05-21T06:14:32;2.13;;;1.10;;
52294;SDS011;38243;53.212;6.574;2023-05-21T06:16:58;1.77;;;1.10;;
52294;SDS011;38243;53.212;6.574;2023-05-21T06:19:23;3.15;;;1.20;;
52294;SDS011;38243;53.212;6.574;2023-05-21T06:21:49;3.43;;;1.47;;
52294;SDS011;38243;53.212;6.574;2023-05-21T06:24:15;4.85;;;1.35;;
52294;SDS011;38243;53.212;6.574;2023-05-21T06:26:40;3.47;;;1.63;;
52294;SDS011;38243;53.212;6.574;2023-05-21T06:29:06;4.65;;;1.20;;
52294;SDS011;38243;53.212;6.574;2023-05-21T06:31:32;3.10;;;1.40;;
52294;SDS011;38243;53.212;6.574;2023-05-21T06:33:58;3.35;;;1.45;;
52294;SDS011;38243;53.212;6.574;2023-05-21T06:36:25;5.07;;;1.10;;
52294;SDS011;38243;53.212;6.574;2023-05-21T06:38:56;2.80;;;1.27;;
52294;SDS011;38243;53.212;6.574;2023-05-21T06:41:22;5.45;;;1.50;;
52294;SDS011;38243;53.212;6.574;2023-05-21T06:43:48;2.60;;;1.38;;
52294;SDS011;38243;53.212;6.574;2023-05-21T06:46:14;3.55;;;1.58;;
52294;SDS011;38243;53.212;6.574;2023-05-21T06:48:39;2.63;;;1.23;;
52294;SDS011;38243;53.212;6.574;2023-05-21T06:51:05;4.65;;;1.50;;
52294;SDS011;38243;53.212;6.574;2023-05-21T06:53:31;6.07;;;1.80;;
52294;SDS011;38243;53.212;6.574;2023-05-21T06:55:57;4.30;;;1.65;;
52294;SDS011;38243;53.212;6.574;2023-05-21T06:58:22;3.20;;;1.30;;
52294;SDS011;38243;53.212;6.574;2023-05-21T07:00:48;6.50;;;1.85;;
52294;SDS011;38243;53.212;6.574;2023-05-21T07:03:14;3.53;;;1.70;;
52294;SDS011;38243;53.212;6.574;2023-05-21T07:05:40;3.20;;;1.70;;
52294;SDS011;38243;53.212;6.574;2023-05-21T07:08:05;3.63;;;1.67;;
52294;SDS011;38243;53.212;6.574;2023-05-21T07:10:31;5.95;;;1.73;;
52294;SDS011;38243;53.212;6.574;2023-05-21T07:12:57;4.90;;;1.60;;
52294;SDS011;38243;53.212;6.574;2023-05-21T07:15:23;4.22;;;1.50;;
52294;SDS011;38243;53.212;6.574;2023-05-21T07:17:48;5.37;;;1.67;;
52294;SDS011;38243;53.212;6.574;2023-05-21T07:20:14;5.45;;;1.88;;
52294;SDS011;38243;53.212;6.574;2023-05-21T07:22:40;4.20;;;2.00;;
52294;SDS011;38243;53.212;6.574;2023-05-21T07:25:07;3.30;;;1.73;;
52294;SDS011;38243;53.212;6.574;2023-05-21T07:27:33;3.07;;;1.43;;
52294;SDS011;38243;53.212;6.574;2023-05-21T07:29:59;3.88;;;1.92;;
52294;SDS011;38243;53.212;6.574;2023-05-21T07:32:25;4.43;;;1.90;;
52294;SDS011;38243;53.212;6.574;2023-05-21T07:34:53;5.00;;;1.80;;
52294;SDS011;38243;53.212;6.574;2023-05-21T07:37:19;3.97;;;1.67;;
52294;SDS011;38243;53.212;6.574;2023-05-21T07:39:45;5.15;;;1.63;;
52294;SDS011;38243;53.212;6.574;2023-05-21T07:42:11;3.60;;;1.70;;
52294;SDS011;38243;53.212;6.574;2023-05-21T07:44:36;3.17;;;1.60;;
52294;SDS011;38243;53.212;6.574;2023-05-21T07:47:02;3.37;;;1.50;;
52294;SDS011;38243;53.212;6.574;2023-05-21T07:49:28;3.53;;;1.60;;
52294;SDS011;38243;53.212;6.574;2023-05-21T07:51:54;3.97;;;1.52;;
52294;SDS011;38243;53.212;6.574;2023-05-21T07:54:20;2.80;;;1.48;;
52294;SDS011;38243;53.212;6.574;2023-05-21T07:56:46;5.20;;;1.50;;
52294;SDS011;38243;53.212;6.574;2023-05-21T07:59:15;2.33;;;1.30;;
52294;SDS011;38243;53.212;6.574;2023-05-21T08:01:41;3.08;;;1.70;;
52294;SDS011;38243;53.212;6.574;2023-05-21T08:04:07;3.28;;;1.42;;
52294;SDS011;38243;53.212;6.574;2023-05-21T08:06:33;3.30;;;1.47;;
52294;SDS011;38243;53.212;6.574;2023-05-21T08:08:59;3.50;;;1.60;;
52294;SDS011;38243;53.212;6.574;2023-05-21T08:11:28;2.80;;;1.60;;
52294;SDS011;38243;53.212;6.574;2023-05-21T08:13:54;4.72;;;1.38;;
52294;SDS011;38243;53.212;6.574;2023-05-21T08:16:20;2.73;;;1.30;;
52294;SDS011;38243;53.212;6.574;2023-05-21T08:18:47;5.53;;;1.67;;
52294;SDS011;38243;53.212;6.574;2023-05-21T08:21:16;4.03;;;1.65;;
52294;SDS011;38243;53.212;6.574;2023-05-21T08:23:42;5.53;;;1.70;;
52294;SDS011;38243;53.212;6.574;2023-05-21T08:26:08;4.57;;;1.85;;
52294;SDS011;38243;53.212;6.574;2023-05-21T08:28:37;4.87;;;1.67;;
52294;SDS011;38243;53.212;6.574;2023-05-21T08:31:03;5.65;;;1.50;;
52294;SDS011;38243;53.212;6.574;2023-05-21T08:33:29;3.80;;;1.67;;
52294;SDS011;38243;53.212;6.574;2023-05-21T08:35:55;3.37;;;1.67;;
52294;SDS011;38243;53.212;6.574;2023-05-21T08:38:20;3.03;;;1.65;;
52294;SDS011;38243;53.212;6.574;2023-05-21T08:40:46;4.03;;;1.73;;
52294;SDS011;38243;53.212;6.574;2023-05-21T08:43:15;3.75;;;1.50;;
52294;SDS011;38243;53.212;6.574;2023-05-21T08:45:46;3.00;;;1.40;;
52294;SDS011;38243;53.212;6.574;2023-05-21T08:48:18;3.03;;;1.40;;
52294;SDS011;38243;53.212;6.574;2023-05-21T08:50:46;3.15;;;1.42;;
52294;SDS011;38243;53.212;6.574;2023-05-21T08:53:12;3.92;;;1.30;;
52294;SDS011;38243;53.212;6.574;2023-05-21T08:55:38;2.78;;;1.40;;
52294;SDS011;38243;53.212;6.574;2023-05-21T08:58:07;2.77;;;1.53;;
52294;SDS011;38243;53.212;6.574;2023-05-21T09:00:33;3.70;;;1.57;;
52294;SDS011;38243;53.212;6.574;2023-05-21T09:02:59;4.22;;;1.58;;
52294;SDS011;38243;53.212;6.574;2023-05-21T09:05:27;7.43;;;2.22;;
52294;SDS011;38243;53.212;6.574;2023-05-21T09:08:06;8.48;;;1.88;;
52294;SDS011;38243;53.212;6.574;2023-05-21T09:10:59;7.60;;;1.77;;
52294;SDS011;38243;53.212;6.574;2023-05-21T09:13:26;4.50;;;1.80;;
52294;SDS011;38243;53.212;6.574;2023-05-21T09:15:56;4.60;;;1.65;;
52294;SDS011;38243;53.212;6.574;2023-05-21T09:18:23;7.60;;;1.83;;
52294;SDS011;38243;53.212;6.574;2023-05-21T09:20:51;11.63;;;1.67;;
52294;SDS011;38243;53.212;6.574;2023-05-21T09:23:18;4.68;;;1.70;;
52294;SDS011;38243;53.212;6.574;2023-05-21T09:25:47;6.43;;;1.48;;
52294;SDS011;38243;53.212;6.574;2023-05-21T09:28:16;7.43;;;1.95;;
52294;SDS011;38243;53.212;6.574;2023-05-21T09:30:43;5.78;;;1.50;;
52294;SDS011;38243;53.212;6.574;2023-05-21T09:33:10;5.90;;;1.75;;
52294;SDS011;38243;53.212;6.574;2023-05-21T09:35:36;5.03;;;1.70;;
52294;SDS011;38243;53.212;6.574;2023-05-21T09:38:02;4.63;;;1.67;;
52294;SDS011;38243;53.212;6.574;2023-05-21T09:40:33;6.47;;;1.70;;
52294;SDS011;38243;53.212;6.574;2023-05-21T09:42:59;6.03;;;1.90;;
52294;SDS011;38243;53.212;6.574;2023-05-21T09:45:26;5.40;;;2.00;;
52294;SDS011;38243;53.212;6.574;2023-05-21T09:47:53;6.18;;;1.77;;
52294;SDS011;38243;53.212;6.574;2023-05-21T09:50:21;4.03;;;1.80;;
52294;SDS011;38243;53.212;6.574;2023-05-21T09:52:51;3.58;;;1.77;;
52294;SDS011;38243;53.212;6.574;2023-05-21T09:55:22;3.85;;;1.70;;
52294;SDS011;38243;53.212;6.574;2023-05-21T09:57:52;5.30;;;2.00;;
52294;SDS011;38243;53.212;6.574;2023-05-21T10:00:19;6.80;;;1.95;;
52294;SDS011;38243;53.212;6.574;2023-05-21T10:02:45;7.80;;;2.07;;
52294;SDS011;38243;53.212;6.574;2023-05-21T10:05:13;4.63;;;1.80;;
52294;SDS011;38243;53.212;6.574;2023-05-21T10:07:43;5.97;;;1.75;;
52294;SDS011;38243;53.212;6.574;2023-05-21T10:10:23;5.93;;;1.88;;
52294;SDS011;38243;53.212;6.574;2023-05-21T10:12:58;4.13;;;1.83;;
52294;SDS011;38243;53.212;6.574;2023-05-21T10:15:30;2.95;;;1.60;;
52294;SDS011;38243;53.212;6.574;2023-05-21T10:18:02;3.53;;;1.85;;
52294;SDS011;38243;53.212;6.574;2023-05-21T10:20:28;4.22;;;1.50;;
52294;SDS011;38243;53.212;6.574;2023-05-21T10:22:54;3.22;;;1.50;;
52294;SDS011;38243;53.212;6.574;2023-05-21T10:25:22;2.45;;;1.40;;
52294;SDS011;38243;53.212;6.574;2023-05-21T10:27:49;3.22;;;1.35;;
52294;SDS011;38243;53.212;6.574;2023-05-21T10:30:16;3.95;;;1.40;;
52294;SDS011;38243;53.212;6.574;2023-05-21T10:32:42;3.25;;;1.70;;
52294;SDS011;38243;53.212;6.574;2023-05-21T10:35:09;2.60;;;1.33;;
52294;SDS011;38243;53.212;6.574;2023-05-21T10:37:37;2.30;;;1.53;;
52294;SDS011;38243;53.212;6.574;2023-05-21T10:40:05;4.07;;;1.60;;
52294;SDS011;38243;53.212;6.574;2023-05-21T10:48:01;6.82;;;1.80;;
52294;SDS011;38243;53.212;6.574;2023-05-21T10:51:38;4.45;;;1.60;;
52294;SDS011;38243;53.212;6.574;2023-05-21T10:59:52;3.40;;;1.80;;
52294;SDS011;38243;53.212;6.574;2023-05-21T11:02:18;3.35;;;1.40;;
52294;SDS011;38243;53.212;6.574;2023-05-21T11:04:45;2.97;;;1.15;;
52294;SDS011;38243;53.212;6.574;2023-05-21T11:07:22;3.97;;;1.30;;
52294;SDS011;38243;53.212;6.574;2023-05-21T11:09:50;3.03;;;1.30;;
52294;SDS011;38243;53.212;6.574;2023-05-21T11:12:16;4.18;;;1.45;;
52294;SDS011;38243;53.212;6.574;2023-05-21T11:15:17;3.80;;;1.42;;
52294;SDS011;38243;53.212;6.574;2023-05-21T11:17:40;2.30;;;1.20;;
52294;SDS011;38243;53.212;6.574;2023-05-21T11:20:11;6.18;;;1.58;;
52294;SDS011;38243;53.212;6.574;2023-05-21T11:22:38;5.38;;;1.50;;
52294;SDS011;38243;53.212;6.574;2023-05-21T11:25:04;3.75;;;1.80;;
52294;SDS011;38243;53.212;6.574;2023-05-21T11:27:40;3.67;;;1.70;;
52294;SDS011;38243;53.212;6.574;2023-05-21T11:30:07;3.00;;;1.40;;
52294;SDS011;38243;53.212;6.574;2023-05-21T11:33:16;3.85;;;1.60;;
52294;SDS011;38243;53.212;6.574;2023-05-21T11:35:35;2.65;;;1.40;;
52294;SDS011;38243;53.212;6.574;2023-05-21T11:38:03;3.13;;;1.40;;
52294;SDS011;38243;53.212;6.574;2023-05-21T11:40:33;2.53;;;1.52;;
52294;SDS011;38243;53.212;6.574;2023-05-21T11:42:59;2.80;;;1.42;;
52294;SDS011;38243;53.212;6.574;2023-05-21T11:45:30;4.63;;;1.60;;
52294;SDS011;38243;53.212;6.574;2023-05-21T11:47:57;3.63;;;1.70;;
52294;SDS011;38243;53.212;6.574;2023-05-21T11:50:23;4.00;;;1.65;;
52294;SDS011;38243;53.212;6.574;2023-05-21T11:52:50;5.82;;;1.75;;
52294;SDS011;38243;53.212;6.574;2023-05-21T11:55:20;7.18;;;1.88;;
52294;SDS011;38243;53.212;6.574;2023-05-21T11:57:46;10.68;;;2.08;;
52294;SDS011;38243;53.212;6.574;2023-05-21T12:00:16;7.75;;;1.90;;
52294;SDS011;38243;53.212;6.574;2023-05-21T12:02:51;5.38;;;1.73;;
52294;SDS011;38243;53.212;6.574;2023-05-21T12:05:17;5.65;;;2.05;;
52294;SDS011;38243;53.212;6.574;2023-05-21T12:07:46;9.70;;;2.77;;
52294;SDS011;38243;53.212;6.574;2023-05-21T12:10:19;7.07;;;2.53;;
52294;SDS011;38243;53.212;6.574;2023-05-21T12:12:45;4.43;;;2.40;;
52294;SDS011;38243;53.212;6.574;2023-05-21T12:15:11;5.85;;;2.28;;
52294;SDS011;38243;53.212;6.574;2023-05-21T12:17:37;5.37;;;2.13;;
52294;SDS011;38243;53.212;6.574;2023-05-21T12:20:03;6.28;;;2.10;;
52294;SDS011;38243;53.212;6.574;2023-05-21T12:22:32;4.18;;;2.35;;
52294;SDS011;38243;53.212;6.574;2023-05-21T12:24:58;5.00;;;2.10;;
52294;SDS011;38243;53.212;6.574;2023-05-21T12:27:25;9.18;;;2.58;;
52294;SDS011;38243;53.212;6.574;2023-05-21T12:29:52;7.68;;;2.50;;
52294;SDS011;38243;53.212;6.574;2023-05-21T12:32:18;6.80;;;2.10;;
52294;SDS011;38243;53.212;6.574;2023-05-21T12:34:45;7.70;;;2.10;;
52294;SDS011;38243;53.212;6.574;2023-05-21T12:39:43;5.47;;;2.00;;
52294;SDS011;38243;53.212;6.574;2023-05-21T12:42:11;4.30;;;1.95;;
52294;SDS011;38243;53.212;6.574;2023-05-21T12:44:38;6.00;;;2.15;;
52294;SDS011;38243;53.212;6.574;2023-05-21T12:47:08;4.05;;;2.17;;
52294;SDS011;38243;53.212;6.574;2023-05-21T12:49:36;4.28;;;2.00;;
52294;SDS011;38243;53.212;6.574;2023-05-21T12:52:07;4.45;;;2.20;;
52294;SDS011;38243;53.212;6.574;2023-05-21T12:54:35;3.17;;;2.10;;
52294;SDS011;38243;53.212;6.574;2023-05-21T12:57:09;4.57;;;2.07;;
52294;SDS011;38243;53.212;6.574;2023-05-21T13:05:16;3.95;;;2.17;;
52294;SDS011;38243;53.212;6.574;2023-05-21T13:07:42;3.03;;;2.20;;
52294;SDS011;38243;53.212;6.574;2023-05-21T13:10:10;4.28;;;2.30;;
52294;SDS011;38243;53.212;6.574;2023-05-21T13:12:37;3.38;;;2.00;;
52294;SDS011;38243;53.212;6.574;2023-05-21T13:15:03;4.27;;;1.90;;
52294;SDS011;38243;53.212;6.574;2023-05-21T13:17:33;3.95;;;2.13;;
52294;SDS011;38243;53.212;6.574;2023-05-21T13:20:06;3.00;;;1.80;;
52294;SDS011;38243;53.212;6.574;2023-05-21T13:22:34;3.47;;;2.10;;
52294;SDS011;38243;53.212;6.574;2023-05-21T13:25:03;3.30;;;2.17;;
52294;SDS011;38243;53.212;6.574;2023-05-21T13:27:29;5.47;;;2.45;;
52294;SDS011;38243;53.212;6.574;2023-05-21T13:29:55;3.58;;;2.10;;
52294;SDS011;38243;53.212;6.574;2023-05-21T13:32:21;5.47;;;2.90;;
52294;SDS011;38243;53.212;6.574;2023-05-21T13:34:47;4.78;;;2.40;;
52294;SDS011;38243;53.212;6.574;2023-05-21T13:37:13;4.90;;;2.20;;
52294;SDS011;38243;53.212;6.574;2023-05-21T13:39:39;4.00;;;2.20;;
52294;SDS011;38243;53.212;6.574;2023-05-21T13:42:04;3.97;;;2.40;;
52294;SDS011;38243;53.212;6.574;2023-05-21T13:44:31;5.15;;;2.47;;
52294;SDS011;38243;53.212;6.574;2023-05-21T13:47:03;6.07;;;2.30;;
52294;SDS011;38243;53.212;6.574;2023-05-21T13:49:30;3.17;;;2.15;;
52294;SDS011;38243;53.212;6.574;2023-05-21T13:51:57;4.45;;;2.45;;
52294;SDS011;38243;53.212;6.574;2023-05-21T13:54:24;4.10;;;2.42;;
52294;SDS011;38243;53.212;6.574;2023-05-21T13:56:53;6.78;;;2.70;;
52294;SDS011;38243;53.212;6.574;2023-05-21T13:59:19;6.60;;;2.72;;
52294;SDS011;38243;53.212;6.574;2023-05-21T14:01:45;7.07;;;2.70;;
52294;SDS011;38243;53.212;6.574;2023-05-21T14:04:12;4.32;;;2.22;;
52294;SDS011;38243;53.212;6.574;2023-05-21T14:06:38;4.18;;;2.53;;
52294;SDS011;38243;53.212;6.574;2023-05-21T14:09:05;4.93;;;2.58;;
52294;SDS011;38243;53.212;6.574;2023-05-21T14:11:32;5.37;;;2.83;;
52294;SDS011;38243;53.212;6.574;2023-05-21T14:13:58;4.47;;;2.70;;
52294;SDS011;38243;53.212;6.574;2023-05-21T14:16:24;5.00;;;2.50;;
52294;SDS011;38243;53.212;6.574;2023-05-21T14:18:54;4.18;;;2.70;;
52294;SDS011;38243;53.212;6.574;2023-05-21T14:21:21;5.38;;;2.53;;
52294;SDS011;38243;53.212;6.574;2023-05-21T14:23:48;4.05;;;2.72;;
52294;SDS011;38243;53.212;6.574;2023-05-21T14:26:14;6.35;;;2.80;;
52294;SDS011;38243;53.212;6.574;2023-05-21T14:28:40;3.85;;;2.72;;
52294;SDS011;38243;53.212;6.574;2023-05-21T14:31:07;5.45;;;2.97;;
52294;SDS011;38243;53.212;6.574;2023-05-21T14:33:34;3.50;;;2.50;;
52294;SDS011;38243;53.212;6.574;2023-05-21T14:36:01;4.82;;;2.78;;
52294;SDS011;38243;53.212;6.574;2023-05-21T14:38:27;4.40;;;2.78;;
52294;SDS011;38243;53.212;6.574;2023-05-21T14:40:55;5.75;;;3.22;;
52294;SDS011;38243;53.212;6.574;2023-05-21T14:43:21;6.45;;;3.33;;
52294;SDS011;38243;53.212;6.574;2023-05-21T14:45:47;5.13;;;2.95;;
52294;SDS011;38243;53.212;6.574;2023-05-21T14:48:15;4.38;;;2.88;;
52294;SDS011;38243;53.212;6.574;2023-05-21T14:50:42;5.43;;;2.92;;
52294;SDS011;38243;53.212;6.574;2023-05-21T14:53:09;5.70;;;3.33;;
52294;SDS011;38243;53.212;6.574;2023-05-21T14:55:36;4.40;;;3.10;;
52294;SDS011;38243;53.212;6.574;2023-05-21T14:58:02;6.18;;;3.03;;
52294;SDS011;38243;53.212;6.574;2023-05-21T15:00:29;5.47;;;3.23;;
52294;SDS011;38243;53.212;6.574;2023-05-21T15:02:55;5.32;;;3.47;;
52294;SDS011;38243;53.212;6.574;2023-05-21T15:05:22;4.93;;;3.10;;
52294;SDS011;38243;53.212;6.574;2023-05-21T15:07:48;5.10;;;3.10;;
52294;SDS011;38243;53.212;6.574;2023-05-21T15:10:14;5.05;;;3.10;;
52294;SDS011;38243;53.212;6.574;2023-05-21T15:12:39;5.33;;;3.57;;
52294;SDS011;38243;53.212;6.574;2023-05-21T15:15:05;5.28;;;3.53;;